createdAt,value
2023-05-16T00:03:57.994Z,11.95
2023-05-16T00:09:44.817Z,11.97
2023-05-16T00:15:07.763Z,12.01
2023-05-16T00:20:53.535Z,12.07
2023-05-16T00:26:16.310Z,12.13
2023-05-16T00:31:37.948Z,12.21
2023-05-16T00:37:02.532Z,12.35
2023-05-16T00:42:26.779Z,12.38
2023-05-16T00:47:57.998Z,12.35
2023-05-16T00:53:27.547Z,12.38
2023-05-16T00:58:50.351Z,12.40
2023-05-16T01:04:00.761Z,12.39
2023-05-16T01:09:20.664Z,12.32
2023-05-16T01:15:09.975Z,12.20
2023-05-16T01:21:21.256Z,12.08
2023-05-16T01:27:01.335Z,11.96
2023-05-16T01:32:17.462Z,11.86
2023-05-16T01:37:38.664Z,11.80
2023-05-16T01:42:54.847Z,11.77
2023-05-16T01:48:21.472Z,11.71
2023-05-16T01:53:38.999Z,11.60
2023-05-16T01:58:59.446Z,11.57
2023-05-16T02:04:16.401Z,11.50
2023-05-16T02:09:36.387Z,11.51
2023-05-16T02:14:56.189Z,11.41
2023-05-16T02:20:07.422Z,11.32
2023-05-16T02:25:12.319Z,11.18
2023-05-16T02:31:10.472Z,11.09
2023-05-16T02:36:47.606Z,11.01
2023-05-16T02:42:11.776Z,10.95
2023-05-16T02:47:50.959Z,10.94
2023-05-16T02:53:29.020Z,10.91
2023-05-16T02:58:43.151Z,10.81
2023-05-16T03:04:12.840Z,10.79
2023-05-16T03:09:34.904Z,10.82
2023-05-16T03:14:51.964Z,10.87
2023-05-16T03:20:29.965Z,10.90
2023-05-16T03:26:02.944Z,10.99
2023-05-16T03:31:56.997Z,11.26
2023-05-16T03:37:17.458Z,11.89
2023-05-16T03:43:13.831Z,12.19
2023-05-16T03:48:35.437Z,12.08
2023-05-16T03:53:54.068Z,12.07
2023-05-16T03:59:22.826Z,12.19
2023-05-16T04:04:33.094Z,12.38
2023-05-16T04:10:06.799Z,12.60
2023-05-16T04:15:17.726Z,12.69
2023-05-16T04:20:35.495Z,12.79
2023-05-16T04:26:00.123Z,12.85
2023-05-16T04:31:28.586Z,12.89
2023-05-16T04:36:41.778Z,12.95
2023-05-16T04:42:26.998Z,13.01
2023-05-16T04:48:01.468Z,13.13
2023-05-16T04:53:11.635Z,13.30
2023-05-16T04:58:27.692Z,13.49
2023-05-16T05:04:35.729Z,13.75
2023-05-16T05:10:23.906Z,14.00
2023-05-16T05:15:29.564Z,14.21
2023-05-16T05:20:52.882Z,14.41
2023-05-16T05:26:12.367Z,14.60
2023-05-16T05:31:53.889Z,14.84
2023-05-16T05:37:29.222Z,15.07
2023-05-16T05:43:19.515Z,15.29
2023-05-16T05:49:03.479Z,15.55
2023-05-16T05:54:36.675Z,15.79
2023-05-16T05:59:44.714Z,16.02
2023-05-16T06:04:49.552Z,16.23
2023-05-16T06:10:15.644Z,16.39
2023-05-16T06:15:47.210Z,16.54
2023-05-16T06:21:11.034Z,16.68
2023-05-16T06:26:31.024Z,16.79
2023-05-16T06:31:43.321Z,16.82
2023-05-16T06:37:11.906Z,16.93
2023-05-16T06:42:24.743Z,17.05
2023-05-16T06:47:35.023Z,17.16
2023-05-16T06:53:05.851Z,17.30
2023-05-16T06:58:17.600Z,17.46
2023-05-16T07:03:40.097Z,17.64
2023-05-16T07:09:10.907Z,17.78
2023-05-16T07:14:37.822Z,18.05
2023-05-16T07:19:47.760Z,18.29
2023-05-16T07:25:01.519Z,18.46
2023-05-16T07:30:06.525Z,18.67
2023-05-16T07:35:13.180Z,18.87
2023-05-16T07:40:20.996Z,19.02
2023-05-16T07:45:40.289Z,19.03
2023-05-16T07:50:44.225Z,19.21
2023-05-16T07:55:46.528Z,19.43
2023-05-16T08:00:57.750Z,19.65
2023-05-16T08:06:16.853Z,19.91
2023-05-16T08:11:39.896Z,20.16
2023-05-16T08:16:54.197Z,20.35
2023-05-16T08:22:02.193Z,20.43
2023-05-16T08:27:07.559Z,20.49
2023-05-16T08:32:11.370Z,20.49
2023-05-16T08:37:17.457Z,20.70
2023-05-16T08:42:25.804Z,21.06
2023-05-16T08:47:51.043Z,21.31
2023-05-16T08:53:06.356Z,21.72
2023-05-16T08:58:11.478Z,22.04
2023-05-16T09:03:14.335Z,22.62
2023-05-16T09:08:20.312Z,23.06
2023-05-16T09:13:26.273Z,23.51
2023-05-16T09:18:31.497Z,23.71
2023-05-16T09:23:40.496Z,23.63
2023-05-16T09:28:57.385Z,23.74
2023-05-16T09:34:13.107Z,23.73
2023-05-16T09:39:27.576Z,23.56
2023-05-16T09:44:35.860Z,23.52
2023-05-16T09:49:38.289Z,23.75
2023-05-16T09:54:52.803Z,23.75
2023-05-16T10:00:02.085Z,23.70
2023-05-16T10:05:10.603Z,23.83
2023-05-16T10:10:14.051Z,23.81
2023-05-16T10:15:22.131Z,23.81
2023-05-16T10:20:26.483Z,23.88
2023-05-16T10:25:54.809Z,23.69
2023-05-16T10:30:57.972Z,23.65
2023-05-16T10:36:09.926Z,23.85
2023-05-16T10:41:13.501Z,24.15
2023-05-16T10:46:35.946Z,24.44
2023-05-16T10:51:41.276Z,24.50
2023-05-16T10:56:43.610Z,24.71
2023-05-16T11:01:53.177Z,24.91
2023-05-16T11:06:59.063Z,25.04
2023-05-16T11:12:09.942Z,24.85
2023-05-16T11:17:25.160Z,24.56
2023-05-16T11:22:33.610Z,24.21
2023-05-16T11:27:57.663Z,23.95
2023-05-16T11:33:03.155Z,23.68
2023-05-16T11:38:05.556Z,23.43
2023-05-16T11:43:08.559Z,23.42
2023-05-16T11:48:14.450Z,23.59
2023-05-16T11:53:22.524Z,23.88
2023-05-16T11:58:24.672Z,24.03
2023-05-16T12:03:36.820Z,23.88
2023-05-16T12:08:51.013Z,23.74
2023-05-16T12:14:19.325Z,23.82
2023-05-16T12:19:32.625Z,23.85
2023-05-16T12:24:35.086Z,23.78
2023-05-16T12:29:37.249Z,23.66
2023-05-16T12:34:51.072Z,23.46
2023-05-16T12:40:07.971Z,23.13
2023-05-16T12:45:17.353Z,23.01
2023-05-16T12:50:23.070Z,22.99
2023-05-16T12:55:31.024Z,22.95
2023-05-16T13:00:50.178Z,22.85
2023-05-16T13:06:09.789Z,22.75
2023-05-16T13:11:19.882Z,22.69
2023-05-16T13:16:22.395Z,22.64
2023-05-16T13:21:30.329Z,22.42
2023-05-16T13:26:43.236Z,22.26
2023-05-16T13:31:52.456Z,21.97
2023-05-16T13:37:01.390Z,21.70
2023-05-16T13:42:12.603Z,21.50
2023-05-16T13:47:26.224Z,21.27
2023-05-16T13:52:28.377Z,20.86
2023-05-16T13:57:31.721Z,20.50
2023-05-16T14:02:43.320Z,20.17
2023-05-16T14:07:52.907Z,19.50
2023-05-16T14:12:54.921Z,19.08
2023-05-16T14:18:07.660Z,18.90
2023-05-16T14:23:12.886Z,18.85
2023-05-16T14:28:15.560Z,18.80
2023-05-16T14:33:23.374Z,18.45
2023-05-16T14:38:31.350Z,18.04
2023-05-16T14:43:39.088Z,17.46
2023-05-16T14:48:44.534Z,16.96
2023-05-16T14:53:49.658Z,16.70
2023-05-16T14:58:57.208Z,16.68
2023-05-16T15:04:04.726Z,16.64
2023-05-16T15:09:07.123Z,16.46
2023-05-16T15:14:09.138Z,16.10
2023-05-16T15:19:14.730Z,15.84
2023-05-16T15:24:26.032Z,15.64
2023-05-16T15:29:37.480Z,15.52
2023-05-16T15:34:52.971Z,15.49
2023-05-16T15:39:56.068Z,15.46
2023-05-16T15:45:06.050Z,15.42
2023-05-16T15:50:17.780Z,15.37
2023-05-16T15:55:37.741Z,15.30
2023-05-16T16:00:48.728Z,15.16
2023-05-16T16:05:52.747Z,15.08
2023-05-16T16:10:58.529Z,15.04
2023-05-16T16:16:04.698Z,15.01
2023-05-16T16:21:08.454Z,14.99
2023-05-16T16:26:17.605Z,14.97
2023-05-16T16:31:23.117Z,14.92
2023-05-16T16:36:38.032Z,14.90
2023-05-16T16:42:25.292Z,14.78
2023-05-16T16:47:35.868Z,14.68
2023-05-16T16:52:47.875Z,14.72
2023-05-16T16:58:02.349Z,14.72
2023-05-16T17:03:22.181Z,14.68
2023-05-16T17:08:33.277Z,14.67
2023-05-16T17:13:59.818Z,14.75
2023-05-16T17:19:22.026Z,14.82
2023-05-16T17:24:33.964Z,14.82
2023-05-16T17:29:39.402Z,14.88
2023-05-16T17:34:53.961Z,14.90
2023-05-16T17:39:59.126Z,14.87
2023-05-16T17:45:04.400Z,14.86
2023-05-16T17:50:09.880Z,14.87
2023-05-16T17:55:15.266Z,14.78
2023-05-16T18:00:21.814Z,14.71
2023-05-16T18:05:24.976Z,14.59
2023-05-16T18:10:43.439Z,14.53
2023-05-16T18:15:55.521Z,14.48
2023-05-16T18:21:06.876Z,14.48
2023-05-16T18:26:16.270Z,14.43
2023-05-16T18:31:24.549Z,14.35
2023-05-16T18:36:30.639Z,14.34
2023-05-16T18:41:45.925Z,14.34
2023-05-16T18:46:57.481Z,14.32
2023-05-16T18:52:10.649Z,14.31
2023-05-16T18:57:34.329Z,14.31
2023-05-16T19:02:42.701Z,14.31
2023-05-16T19:07:45.457Z,14.34
2023-05-16T19:13:12.519Z,14.38
2023-05-16T19:18:35.422Z,14.36
2023-05-16T19:23:37.745Z,14.40
2023-05-16T19:28:43.386Z,14.46
2023-05-16T19:33:46.390Z,14.52
2023-05-16T19:38:57.640Z,14.51
2023-05-16T19:43:59.720Z,14.47
2023-05-16T19:49:14.835Z,14.39
2023-05-16T19:54:17.621Z,14.23
2023-05-16T19:59:20.629Z,14.09
2023-05-16T20:04:22.880Z,13.96
2023-05-16T20:09:25.138Z,13.89
2023-05-16T20:14:29.153Z,13.80
2023-05-16T20:19:31.779Z,13.69
2023-05-16T20:24:40.054Z,13.60
2023-05-16T20:29:42.801Z,13.47
2023-05-16T20:34:45.607Z,13.38
2023-05-16T20:39:49.951Z,13.32
2023-05-16T20:44:52.269Z,13.28
2023-05-16T20:49:54.797Z,13.27
2023-05-16T20:55:00.347Z,13.23
2023-05-16T21:00:03.582Z,13.14
2023-05-16T21:05:20.186Z,13.03
2023-05-16T21:10:27.817Z,12.97
2023-05-16T21:15:38.486Z,12.93
2023-05-16T21:20:47.019Z,12.94
2023-05-16T21:25:49.333Z,12.92
2023-05-16T21:30:52.622Z,12.90
2023-05-16T21:36:06.645Z,12.92
2023-05-16T21:41:10.728Z,12.91
2023-05-16T21:46:13.345Z,12.92
2023-05-16T21:51:22.479Z,12.94
2023-05-16T21:56:38.214Z,12.97
2023-05-16T22:01:45.270Z,12.99
2023-05-16T22:06:49.841Z,12.97
2023-05-16T22:11:52.898Z,12.91
2023-05-16T22:17:01.949Z,12.88
2023-05-16T22:22:10.246Z,12.88
2023-05-16T22:27:12.640Z,12.87
2023-05-16T22:32:17.749Z,12.84
2023-05-16T22:37:19.853Z,12.82
2023-05-16T22:42:21.908Z,12.79
2023-05-16T22:47:24.204Z,12.80
2023-05-16T22:52:32.038Z,12.79
2023-05-16T22:57:36.812Z,12.79
2023-05-16T23:02:39.800Z,12.80
2023-05-16T23:07:44.330Z,12.79
2023-05-16T23:13:11.802Z,12.80
2023-05-16T23:18:28.226Z,12.79
2023-05-16T23:23:30.511Z,12.74
2023-05-16T23:28:33.132Z,12.71
2023-05-16T23:33:35.334Z,12.67
2023-05-16T23:38:38.486Z,12.62
2023-05-16T23:43:43.547Z,12.63
2023-05-16T23:48:57.205Z,12.62
2023-05-16T23:54:04.933Z,12.61
2023-05-16T23:59:10.605Z,12.62
